Etusivu
METAR-TAF:

METAR-TAF

Lentoasemat :

Stevens Point Municipal Airport

Stevens Point, Wisconsin, Yhdysvallat

Leveyspiiri: 44-32-42N, Pituuspiiri: 089-31-49W, korkeus merenpinnasta: 338 m

Tämänhetkinen sää

Tämä raportti tehtiin 1 tunti ja 2 minuuttia sitten, kello 07.15 UTC
Tuuli 11 kn etelästä puuskistuen 15 kn:hen
Lämpötila -11°C
Kosteus 51%
Ilmanpaine 1021 hPa
Näkyvyys: 16.1 km
Hajanaisia pilviä 12000 ft:n korkeudessa

METAR: KSTE 130715Z AUTO 19011G15KT 10SM SCT120 M11/M19 A3015 RMK AO2 T11131188

Aika: 02:17 (08:17 UTC)


TAF: puuttuu

Säähavainnot ja -ennusteet yli 4000 lentoasemalta (METAR- ja TAF-raportit).

Käytössä olevat sääasemat on merkitty karttaan keltaisilla ja punaisilla pisteillä.

Aseta hiiri pisteen päälle nähdäksesi sääaseman nimen.

Klikkaa sitten nähdäksesi säähavainnot ja -ennusteet.

Kartan vaihtaminen: klikkaa mustalla rastilla varustettuja vihreitä pisteitä, niin voit zoomata sisään; viivalla varustettua vihreää pistettä, niin voit zoomata ulos tai vihreitä nuolia, niin pääset viereisille kartoille.


METAR-TAF: